sensor_id;sensor_type;location;lat;lon;timestamp;pressure;altitude;pressure_sealevel;temperature;humidity
69622;BME280;56841;55.964;37.674;2023-07-02T00:01:12;97784.03;;;17.56;100.00
69622;BME280;56841;55.964;37.674;2023-07-02T00:03:38;97788.00;;;17.53;100.00
69622;BME280;56841;55.964;37.674;2023-07-02T00:06:04;97793.03;;;17.49;100.00
69622;BME280;56841;55.964;37.674;2023-07-02T00:08:30;97797.28;;;17.45;100.00
69622;BME280;56841;55.964;37.674;2023-07-02T00:10:56;97784.22;;;17.44;100.00
69622;BME280;56841;55.964;37.674;2023-07-02T00:13:21;97796.19;;;17.41;100.00
69622;BME280;56841;55.964;37.674;2023-07-02T00:15:47;97792.69;;;17.36;100.00
69622;BME280;56841;55.964;37.674;2023-07-02T00:18:13;97794.56;;;17.35;100.00
69622;BME280;56841;55.964;37.674;2023-07-02T00:20:43;97791.09;;;17.35;100.00
69622;BME280;56841;55.964;37.674;2023-07-02T00:23:09;97788.38;;;17.29;100.00
69622;BME280;56841;55.964;37.674;2023-07-02T00:25:36;97789.69;;;17.27;100.00
69622;BME280;56841;55.964;37.674;2023-07-02T00:28:03;97797.13;;;17.25;100.00
69622;BME280;56841;55.964;37.674;2023-07-02T00:30:29;97796.34;;;17.24;100.00
69622;BME280;56841;55.964;37.674;2023-07-02T00:32:55;97797.66;;;17.22;100.00
69622;BME280;56841;55.964;37.674;2023-07-02T00:35:22;97800.28;;;17.17;100.00
69622;BME280;56841;55.964;37.674;2023-07-02T00:37:49;97806.63;;;17.11;100.00
69622;BME280;56841;55.964;37.674;2023-07-02T00:40:14;97806.34;;;17.07;100.00
69622;BME280;56841;55.964;37.674;2023-07-02T00:42:40;97802.31;;;17.04;100.00
69622;BME280;56841;55.964;37.674;2023-07-02T00:45:06;97807.59;;;16.99;100.00
69622;BME280;56841;55.964;37.674;2023-07-02T00:47:34;97813.16;;;16.93;100.00
69622;BME280;56841;55.964;37.674;2023-07-02T00:50:01;97808.84;;;16.92;100.00
69622;BME280;56841;55.964;37.674;2023-07-02T00:52:33;97805.16;;;16.93;100.00
69622;BME280;56841;55.964;37.674;2023-07-02T00:54:59;97806.69;;;16.89;100.00
69622;BME280;56841;55.964;37.674;2023-07-02T00:57:25;97803.22;;;16.88;100.00
69622;BME280;56841;55.964;37.674;2023-07-02T00:59:57;97815.75;;;16.88;100.00
69622;BME280;56841;55.964;37.674;2023-07-02T01:02:23;97814.16;;;16.87;100.00
69622;BME280;56841;55.964;37.674;2023-07-02T01:04:51;97814.38;;;16.85;100.00
69622;BME280;56841;55.964;37.674;2023-07-02T01:07:23;97812.47;;;16.80;100.00
69622;BME280;56841;55.964;37.674;2023-07-02T01:09:50;97824.50;;;16.83;100.00
69622;BME280;56841;55.964;37.674;2023-07-02T01:12:16;97820.47;;;16.80;100.00
69622;BME280;56841;55.964;37.674;2023-07-02T01:14:52;97825.50;;;16.77;100.00
69622;BME280;56841;55.964;37.674;2023-07-02T01:17:19;97817.81;;;16.80;100.00
69622;BME280;56841;55.964;37.674;2023-07-02T01:19:48;97822.84;;;16.77;100.00
69622;BME280;56841;55.964;37.674;2023-07-02T01:22:24;97818.81;;;16.74;100.00
69622;BME280;56841;55.964;37.674;2023-07-02T01:24:51;97816.94;;;16.75;100.00
69622;BME280;56841;55.964;37.674;2023-07-02T01:27:18;97820.09;;;16.72;100.00
69622;BME280;56841;55.964;37.674;2023-07-02T01:29:50;97827.84;;;16.73;100.00
69622;BME280;56841;55.964;37.674;2023-07-02T01:32:16;97832.38;;;16.73;100.00
69622;BME280;56841;55.964;37.674;2023-07-02T01:34:42;97841.91;;;16.69;100.00
69622;BME280;56841;55.964;37.674;2023-07-02T01:37:17;97841.09;;;16.68;100.00
69622;BME280;56841;55.964;37.674;2023-07-02T01:39:44;97835.47;;;16.65;100.00
69622;BME280;56841;55.964;37.674;2023-07-02T01:42:16;97841.84;;;16.64;100.00
69622;BME280;56841;55.964;37.674;2023-07-02T01:44:46;97843.09;;;16.56;100.00
69622;BME280;56841;55.964;37.674;2023-07-02T01:47:11;97839.38;;;16.57;100.00
69622;BME280;56841;55.964;37.674;2023-07-02T01:49:38;97839.38;;;16.57;100.00
69622;BME280;56841;55.964;37.674;2023-07-02T01:52:05;97839.06;;;16.53;100.00
69622;BME280;56841;55.964;37.674;2023-07-02T01:54:32;97836.19;;;16.55;100.00
69622;BME280;56841;55.964;37.674;2023-07-02T01:56:58;97843.91;;;16.56;100.00
69622;BME280;56841;55.964;37.674;2023-07-02T01:59:24;97846.38;;;16.63;100.00
69622;BME280;56841;55.964;37.674;2023-07-02T02:01:50;97839.75;;;16.66;100.00
69622;BME280;56841;55.964;37.674;2023-07-02T02:04:16;97838.38;;;16.63;100.00
69622;BME280;56841;55.964;37.674;2023-07-02T02:06:42;97832.06;;;16.69;100.00
69622;BME280;56841;55.964;37.674;2023-07-02T02:09:08;97836.44;;;16.75;100.00
69622;BME280;56841;55.964;37.674;2023-07-02T02:11:39;97845.81;;;16.83;100.00
69622;BME280;56841;55.964;37.674;2023-07-02T02:14:05;97847.09;;;16.75;100.00
69622;BME280;56841;55.964;37.674;2023-07-02T02:16:31;97845.81;;;16.83;100.00
69622;BME280;56841;55.964;37.674;2023-07-02T02:19:00;97843.16;;;16.83;100.00
69622;BME280;56841;55.964;37.674;2023-07-02T02:21:26;97845.56;;;16.85;100.00
69622;BME280;56841;55.964;37.674;2023-07-02T02:23:52;97848.53;;;16.88;100.00
69622;BME280;56841;55.964;37.674;2023-07-02T02:26:18;97842.47;;;16.93;100.00
69622;BME280;56841;55.964;37.674;2023-07-02T02:28:47;97838.75;;;16.94;100.00
69622;BME280;56841;55.964;37.674;2023-07-02T02:31:15;97843.28;;;16.93;100.00
69622;BME280;56841;55.964;37.674;2023-07-02T02:33:41;97846.47;;;16.95;100.00
69622;BME280;56841;55.964;37.674;2023-07-02T02:36:07;97837.47;;;17.01;100.00
69622;BME280;56841;55.964;37.674;2023-07-02T02:38:32;97834.81;;;17.01;100.00
69622;BME280;56841;55.964;37.674;2023-07-02T02:41:00;97834.59;;;17.08;100.00
69622;BME280;56841;55.964;37.674;2023-07-02T02:43:29;97834.31;;;17.04;100.00
69622;BME280;56841;55.964;37.674;2023-07-02T02:45:55;97835.66;;;17.07;100.00
69622;BME280;56841;55.964;37.674;2023-07-02T02:48:21;97837.31;;;17.13;100.00
69622;BME280;56841;55.964;37.674;2023-07-02T02:50:50;97836.50;;;17.13;100.00
69622;BME280;56841;55.964;37.674;2023-07-02T02:53:16;97845.31;;;17.13;100.00
69622;BME280;56841;55.964;37.674;2023-07-02T02:55:41;97849.09;;;17.17;100.00
69622;BME280;56841;55.964;37.674;2023-07-02T02:58:07;97844.50;;;17.13;100.00
69622;BME280;56841;55.964;37.674;2023-07-02T03:00:33;97855.78;;;17.20;100.00
69622;BME280;56841;55.964;37.674;2023-07-02T03:02:59;97856.13;;;17.28;100.00
69622;BME280;56841;55.964;37.674;2023-07-02T03:05:24;97857.91;;;17.23;100.00
69622;BME280;56841;55.964;37.674;2023-07-02T03:07:51;97868.06;;;17.21;100.00
69622;BME280;56841;55.964;37.674;2023-07-02T03:10:17;97869.66;;;17.22;100.00
69622;BME280;56841;55.964;37.674;2023-07-02T03:12:45;97874.78;;;17.28;100.00
69622;BME280;56841;55.964;37.674;2023-07-02T03:15:11;97860.94;;;17.32;100.00
69622;BME280;56841;55.964;37.674;2023-07-02T03:17:36;97899.28;;;17.25;100.00
69622;BME280;56841;55.964;37.674;2023-07-02T03:20:03;97889.44;;;17.26;100.00
69622;BME280;56841;55.964;37.674;2023-07-02T03:22:31;97886.81;;;17.31;100.00
69622;BME280;56841;55.964;37.674;2023-07-02T03:24:57;97895.34;;;17.33;100.00
69622;BME280;56841;55.964;37.674;2023-07-02T03:27:23;97896.09;;;17.23;100.00
69622;BME280;56841;55.964;37.674;2023-07-02T03:29:48;97897.44;;;17.26;100.00
69622;BME280;56841;55.964;37.674;2023-07-02T03:32:14;97909.84;;;17.42;100.00
69622;BME280;56841;55.964;37.674;2023-07-02T03:34:40;97892.38;;;17.29;100.00
69622;BME280;56841;55.964;37.674;2023-07-02T03:37:07;97897.06;;;17.44;100.00
69622;BME280;56841;55.964;37.674;2023-07-02T03:39:33;97899.16;;;17.37;100.00
69622;BME280;56841;55.964;37.674;2023-07-02T03:41:58;97892.47;;;17.35;100.00
69622;BME280;56841;55.964;37.674;2023-07-02T03:44:24;97896.28;;;17.44;100.00
69622;BME280;56841;55.964;37.674;2023-07-02T03:46:50;97903.72;;;17.42;100.00
69622;BME280;56841;55.964;37.674;2023-07-02T03:49:15;97897.66;;;17.51;100.00
69622;BME280;56841;55.964;37.674;2023-07-02T03:51:41;97908.28;;;17.46;100.00
69622;BME280;56841;55.964;37.674;2023-07-02T03:54:07;97911.34;;;17.60;100.00
69622;BME280;56841;55.964;37.674;2023-07-02T03:56:32;97911.91;;;17.62;100.00
69622;BME280;56841;55.964;37.674;2023-07-02T03:58:58;97903.31;;;17.55;100.00
69622;BME280;56841;55.964;37.674;2023-07-02T04:01:24;97905.09;;;17.76;100.00
69622;BME280;56841;55.964;37.674;2023-07-02T04:03:51;97912.66;;;17.90;98.93
69622;BME280;56841;55.964;37.674;2023-07-02T04:06:18;97903.88;;;17.94;97.23
69622;BME280;56841;55.964;37.674;2023-07-02T04:08:44;97915.03;;;17.86;96.10
69622;BME280;56841;55.964;37.674;2023-07-02T04:11:10;97921.03;;;18.04;95.12
69622;BME280;56841;55.964;37.674;2023-07-02T04:13:37;97920.16;;;17.93;95.47
69622;BME280;56841;55.964;37.674;2023-07-02T04:16:03;97909.78;;;17.96;94.42
69622;BME280;56841;55.964;37.674;2023-07-02T04:18:29;97916.72;;;17.97;94.79
69622;BME280;56841;55.964;37.674;2023-07-02T04:20:55;97914.34;;;18.01;94.10
69622;BME280;56841;55.964;37.674;2023-07-02T04:23:21;97917.22;;;17.94;93.55
69622;BME280;56841;55.964;37.674;2023-07-02T04:25:46;97916.22;;;18.00;93.39
69622;BME280;56841;55.964;37.674;2023-07-02T04:28:12;97917.34;;;18.10;92.06
69622;BME280;56841;55.964;37.674;2023-07-02T04:30:38;97922.13;;;18.08;91.94
69622;BME280;56841;55.964;37.674;2023-07-02T04:33:04;97922.91;;;18.03;91.17
69622;BME280;56841;55.964;37.674;2023-07-02T04:35:31;97915.41;;;18.00;91.96
69622;BME280;56841;55.964;37.674;2023-07-02T04:38:01;97916.91;;;18.28;90.38
69622;BME280;56841;55.964;37.674;2023-07-02T04:40:27;97920.66;;;18.32;88.97
69622;BME280;56841;55.964;37.674;2023-07-02T04:42:53;97922.31;;;18.38;88.90
69622;BME280;56841;55.964;37.674;2023-07-02T04:45:24;97922.94;;;18.56;87.34
69622;BME280;56841;55.964;37.674;2023-07-02T04:47:51;97926.41;;;18.51;86.70
69622;BME280;56841;55.964;37.674;2023-07-02T04:50:18;97924.84;;;18.65;84.26
69622;BME280;56841;55.964;37.674;2023-07-02T04:52:44;97919.84;;;18.74;84.12
69622;BME280;56841;55.964;37.674;2023-07-02T04:55:10;97918.22;;;18.73;84.18
69622;BME280;56841;55.964;37.674;2023-07-02T04:57:36;97923.31;;;18.80;83.59
69622;BME280;56841;55.964;37.674;2023-07-02T05:00:02;97931.13;;;18.91;82.02
69622;BME280;56841;55.964;37.674;2023-07-02T05:02:31;97933.78;;;18.81;80.87
69622;BME280;56841;55.964;37.674;2023-07-02T05:04:57;97925.28;;;19.00;81.17
69622;BME280;56841;55.964;37.674;2023-07-02T05:07:23;97934.63;;;18.97;80.57
69622;BME280;56841;55.964;37.674;2023-07-02T05:09:49;97926.91;;;19.06;80.78
69622;BME280;56841;55.964;37.674;2023-07-02T05:12:17;97922.66;;;19.20;80.17
69622;BME280;56841;55.964;37.674;2023-07-02T05:14:43;97925.88;;;19.22;79.08
69622;BME280;56841;55.964;37.674;2023-07-02T05:17:08;97920.03;;;19.46;78.49
69622;BME280;56841;55.964;37.674;2023-07-02T05:19:34;97924.28;;;19.52;77.04
69622;BME280;56841;55.964;37.674;2023-07-02T05:22:00;97922.69;;;19.61;76.99
69622;BME280;56841;55.964;37.674;2023-07-02T05:24:26;97932.31;;;19.62;75.47
69622;BME280;56841;55.964;37.674;2023-07-02T05:26:51;97937.41;;;19.48;75.83
69622;BME280;56841;55.964;37.674;2023-07-02T05:29:17;97933.16;;;19.78;74.70
69622;BME280;56841;55.964;37.674;2023-07-02T05:31:43;97925.41;;;19.76;74.07
69622;BME280;56841;55.964;37.674;2023-07-02T05:34:08;97920.06;;;19.86;73.74
69622;BME280;56841;55.964;37.674;2023-07-02T05:36:34;97927.00;;;19.72;73.20
69622;BME280;56841;55.964;37.674;2023-07-02T05:39:00;97936.88;;;19.61;73.94
69622;BME280;56841;55.964;37.674;2023-07-02T05:41:26;97940.94;;;19.64;72.69
69622;BME280;56841;55.964;37.674;2023-07-02T05:44:00;97929.94;;;19.86;72.49
69622;BME280;56841;55.964;37.674;2023-07-02T05:46:26;97942.53;;;20.01;70.79
69622;BME280;56841;55.964;37.674;2023-07-02T05:48:52;97933.41;;;20.17;70.99
69622;BME280;56841;55.964;37.674;2023-07-02T05:51:21;97932.31;;;20.13;69.48
69622;BME280;56841;55.964;37.674;2023-07-02T05:53:47;97931.53;;;20.18;70.21
69622;BME280;56841;55.964;37.674;2023-07-02T05:56:13;97928.34;;;20.10;69.36
69622;BME280;56841;55.964;37.674;2023-07-02T05:58:39;97928.56;;;20.29;68.07
69622;BME280;56841;55.964;37.674;2023-07-02T06:01:05;97928.00;;;20.32;66.70
69622;BME280;56841;55.964;37.674;2023-07-02T06:03:32;97933.09;;;20.39;66.39
69622;BME280;56841;55.964;37.674;2023-07-02T06:05:58;97929.03;;;20.47;64.87
69622;BME280;56841;55.964;37.674;2023-07-02T06:08:24;97939.75;;;20.57;64.82
69622;BME280;56841;55.964;37.674;2023-07-02T06:10:50;97943.53;;;20.46;65.56
69622;BME280;56841;55.964;37.674;2023-07-02T06:13:16;97936.53;;;20.60;64.46
69622;BME280;56841;55.964;37.674;2023-07-02T06:15:43;97937.78;;;20.83;63.57
69622;BME280;56841;55.964;37.674;2023-07-02T06:18:09;97936.19;;;20.82;62.67
69622;BME280;56841;55.964;37.674;2023-07-02T06:20:34;97942.03;;;20.94;63.46
69622;BME280;56841;55.964;37.674;2023-07-02T06:23:00;97944.13;;;21.08;63.28
69622;BME280;56841;55.964;37.674;2023-07-02T06:25:26;97944.41;;;21.01;59.96
69622;BME280;56841;55.964;37.674;2023-07-02T06:27:52;97941.97;;;21.10;60.11
69622;BME280;56841;55.964;37.674;2023-07-02T06:30:24;97948.09;;;21.15;61.42
69622;BME280;56841;55.964;37.674;2023-07-02T06:32:50;97934.19;;;21.08;62.03
69622;BME280;56841;55.964;37.674;2023-07-02T06:35:15;97942.66;;;21.25;61.46
69622;BME280;56841;55.964;37.674;2023-07-02T06:37:42;97931.97;;;21.20;59.94
69622;BME280;56841;55.964;37.674;2023-07-02T06:40:08;97938.47;;;21.09;59.99
69622;BME280;56841;55.964;37.674;2023-07-02T06:42:33;97945.72;;;21.09;59.79
69622;BME280;56841;55.964;37.674;2023-07-02T06:45:02;97943.22;;;21.22;59.38
69622;BME280;56841;55.964;37.674;2023-07-02T06:47:31;97936.25;;;21.26;57.83
69622;BME280;56841;55.964;37.674;2023-07-02T06:49:56;97944.00;;;21.23;56.25
69622;BME280;56841;55.964;37.674;2023-07-02T06:52:22;97935.66;;;21.35;57.46
69622;BME280;56841;55.964;37.674;2023-07-02T06:54:48;97947.25;;;21.25;55.87
69622;BME280;56841;55.964;37.674;2023-07-02T06:57:13;97944.75;;;21.44;56.02
69622;BME280;56841;55.964;37.674;2023-07-02T06:59:39;97939.53;;;21.58;55.37
69622;BME280;56841;55.964;37.674;2023-07-02T07:02:06;97939.63;;;21.82;55.22
69622;BME280;56841;55.964;37.674;2023-07-02T07:04:32;97937.09;;;21.95;55.66
69622;BME280;56841;55.964;37.674;2023-07-02T07:06:57;97939.84;;;22.14;55.92
69622;BME280;56841;55.964;37.674;2023-07-02T07:09:23;97948.53;;;22.06;54.52
69622;BME280;56841;55.964;37.674;2023-07-02T07:11:49;97940.56;;;21.96;55.09
69622;BME280;56841;55.964;37.674;2023-07-02T07:14:15;97942.94;;;22.03;54.07
69622;BME280;56841;55.964;37.674;2023-07-02T07:16:41;97949.03;;;22.08;52.93
69622;BME280;56841;55.964;37.674;2023-07-02T07:19:07;97942.16;;;22.31;52.79
69622;BME280;56841;55.964;37.674;2023-07-02T07:21:36;97940.16;;;22.42;52.22
69622;BME280;56841;55.964;37.674;2023-07-02T07:24:01;97940.69;;;22.87;51.62
69622;BME280;56841;55.964;37.674;2023-07-02T07:26:27;97945.81;;;22.88;50.20
69622;BME280;56841;55.964;37.674;2023-07-02T07:28:53;97930.47;;;22.89;50.05
69622;BME280;56841;55.964;37.674;2023-07-02T07:31:21;97941.75;;;22.91;50.80
69622;BME280;56841;55.964;37.674;2023-07-02T07:33:47;97940.91;;;22.90;50.93
69622;BME280;56841;55.964;37.674;2023-07-02T07:36:13;97945.41;;;23.00;50.50
69622;BME280;56841;55.964;37.674;2023-07-02T07:38:39;97948.66;;;22.97;51.42
69622;BME280;56841;55.964;37.674;2023-07-02T07:41:05;97954.34;;;22.71;52.25
69622;BME280;56841;55.964;37.674;2023-07-02T07:43:31;97959.19;;;22.69;52.85
69622;BME280;56841;55.964;37.674;2023-07-02T07:45:56;97961.19;;;22.35;53.94
69622;BME280;56841;55.964;37.674;2023-07-02T07:48:23;97963.94;;;22.30;54.01
69622;BME280;56841;55.964;37.674;2023-07-02T07:50:49;97960.19;;;22.26;54.20
69622;BME280;56841;55.964;37.674;2023-07-02T07:53:15;97963.56;;;22.12;54.33
69622;BME280;56841;55.964;37.674;2023-07-02T07:55:41;97961.03;;;22.26;54.34
69622;BME280;56841;55.964;37.674;2023-07-02T07:58:07;97962.97;;;22.44;53.59
69622;BME280;56841;55.964;37.674;2023-07-02T08:00:33;97962.19;;;22.68;53.54
69622;BME280;56841;55.964;37.674;2023-07-02T08:02:59;97957.44;;;22.84;53.49
69622;BME280;56841;55.964;37.674;2023-07-02T08:05:26;97954.88;;;23.16;53.05
69622;BME280;56841;55.964;37.674;2023-07-02T08:07:52;97949.38;;;23.08;52.73
69622;BME280;56841;55.964;37.674;2023-07-02T08:10:19;97960.06;;;22.89;53.47
69622;BME280;56841;55.964;37.674;2023-07-02T08:12:45;97961.97;;;22.64;53.07
69622;BME280;56841;55.964;37.674;2023-07-02T08:15:13;97957.06;;;22.42;53.08
69622;BME280;56841;55.964;37.674;2023-07-02T08:17:38;97967.69;;;22.29;54.07
69622;BME280;56841;55.964;37.674;2023-07-02T08:20:06;97980.75;;;21.77;56.35
69622;BME280;56841;55.964;37.674;2023-07-02T08:22:36;97986.19;;;21.72;57.10
69622;BME280;56841;55.964;37.674;2023-07-02T08:25:02;97991.06;;;21.65;57.54
69622;BME280;56841;55.964;37.674;2023-07-02T08:27:29;97987.03;;;21.62;57.91
69622;BME280;56841;55.964;37.674;2023-07-02T08:29:55;97988.09;;;21.66;57.73
69622;BME280;56841;55.964;37.674;2023-07-02T08:32:21;97996.69;;;21.68;58.08
69622;BME280;56841;55.964;37.674;2023-07-02T08:34:47;97996.78;;;21.92;57.39
69622;BME280;56841;55.964;37.674;2023-07-02T08:37:13;98002.31;;;22.01;56.76
69622;BME280;56841;55.964;37.674;2023-07-02T08:39:39;97996.13;;;22.06;57.59
69622;BME280;56841;55.964;37.674;2023-07-02T08:42:05;97994.00;;;22.37;56.25
69622;BME280;56841;55.964;37.674;2023-07-02T08:44:31;97996.31;;;22.19;55.55
69622;BME280;56841;55.964;37.674;2023-07-02T08:46:57;97986.06;;;22.21;54.51
69622;BME280;56841;55.964;37.674;2023-07-02T08:49:24;97981.91;;;22.05;54.39
69622;BME280;56841;55.964;37.674;2023-07-02T08:51:50;97982.41;;;22.07;54.79
69622;BME280;56841;55.964;37.674;2023-07-02T08:54:19;97972.00;;;22.30;54.54
69622;BME280;56841;55.964;37.674;2023-07-02T08:56:46;97980.16;;;22.48;54.35
69622;BME280;56841;55.964;37.674;2023-07-02T08:59:13;97973.06;;;22.58;53.98
69622;BME280;56841;55.964;37.674;2023-07-02T09:01:52;97968.06;;;22.70;53.03
69622;BME280;56841;55.964;37.674;2023-07-02T09:04:19;97977.56;;;22.62;54.37
69622;BME280;56841;55.964;37.674;2023-07-02T09:06:47;97990.31;;;22.57;53.24
69622;BME280;56841;55.964;37.674;2023-07-02T09:09:13;97982.66;;;22.40;52.41
69622;BME280;56841;55.964;37.674;2023-07-02T09:11:51;97979.34;;;22.48;52.46
69622;BME280;56841;55.964;37.674;2023-07-02T09:14:28;97986.25;;;22.30;52.49
69622;BME280;56841;55.964;37.674;2023-07-02T09:17:08;97984.56;;;22.39;52.78
69622;BME280;56841;55.964;37.674;2023-07-02T09:19:35;97980.72;;;22.45;51.13
69622;BME280;56841;55.964;37.674;2023-07-02T09:22:02;97979.41;;;22.91;51.13
69622;BME280;56841;55.964;37.674;2023-07-02T09:24:30;97985.19;;;22.79;48.01
69622;BME280;56841;55.964;37.674;2023-07-02T09:26:58;97989.88;;;22.68;48.32
69622;BME280;56841;55.964;37.674;2023-07-02T09:29:29;97986.69;;;22.66;47.13
69622;BME280;56841;55.964;37.674;2023-07-02T09:32:05;97978.59;;;22.66;47.83
69622;BME280;56841;55.964;37.674;2023-07-02T09:34:35;97981.34;;;22.85;46.81
69622;BME280;56841;55.964;37.674;2023-07-02T09:37:02;97965.28;;;23.04;45.21
69622;BME280;56841;55.964;37.674;2023-07-02T09:39:35;97976.72;;;23.15;44.73
69622;BME280;56841;55.964;37.674;2023-07-02T09:42:02;97975.41;;;23.12;44.96
69622;BME280;56841;55.964;37.674;2023-07-02T09:44:29;97968.78;;;23.24;44.60
69622;BME280;56841;55.964;37.674;2023-07-02T09:47:09;97977.44;;;23.21;45.26
69622;BME280;56841;55.964;37.674;2023-07-02T09:49:37;97979.50;;;23.29;44.98
69622;BME280;56841;55.964;37.674;2023-07-02T09:52:06;97978.19;;;23.26;45.44
69622;BME280;56841;55.964;37.674;2023-07-02T09:54:32;97974.63;;;23.50;45.45
69622;BME280;56841;55.964;37.674;2023-07-02T09:56:58;97965.38;;;23.56;44.96
69622;BME280;56841;55.964;37.674;2023-07-02T09:59:24;97967.50;;;23.40;43.87
69622;BME280;56841;55.964;37.674;2023-07-02T10:01:51;97969.16;;;23.36;44.46
69622;BME280;56841;55.964;37.674;2023-07-02T10:04:18;97980.09;;;23.26;45.31
69622;BME280;56841;55.964;37.674;2023-07-02T10:06:54;97978.50;;;23.01;46.17
69622;BME280;56841;55.964;37.674;2023-07-02T10:09:38;97976.31;;;22.79;46.71
69622;BME280;56841;55.964;37.674;2023-07-02T10:12:21;97970.06;;;22.83;45.93
69622;BME280;56841;55.964;37.674;2023-07-02T10:14:49;97971.16;;;23.06;45.37
69622;BME280;56841;55.964;37.674;2023-07-02T10:17:25;97976.69;;;22.96;45.56
69622;BME280;56841;55.964;37.674;2023-07-02T10:19:54;97972.84;;;23.02;44.59
69622;BME280;56841;55.964;37.674;2023-07-02T10:22:20;97958.59;;;23.21;44.05
69622;BME280;56841;55.964;37.674;2023-07-02T10:27:18;97976.66;;;23.39;43.62
69622;BME280;56841;55.964;37.674;2023-07-02T10:29:50;97975.00;;;23.81;43.29
69622;BME280;56841;55.964;37.674;2023-07-02T10:32:26;97973.03;;;23.86;42.71
69622;BME280;56841;55.964;37.674;2023-07-02T10:34:53;97981.25;;;23.57;43.91
69622;BME280;56841;55.964;37.674;2023-07-02T10:37:19;97972.50;;;23.65;44.30
69622;BME280;56841;55.964;37.674;2023-07-02T10:39:45;97980.88;;;23.64;43.54
69622;BME280;56841;55.964;37.674;2023-07-02T10:42:10;97979.88;;;23.60;43.25
69622;BME280;56841;55.964;37.674;2023-07-02T10:44:52;97989.09;;;23.35;43.37
69622;BME280;56841;55.964;37.674;2023-07-02T10:47:18;97987.81;;;23.32;42.68
69622;BME280;56841;55.964;37.674;2023-07-02T10:49:45;97984.50;;;22.98;43.35
69622;BME280;56841;55.964;37.674;2023-07-02T10:52:11;97994.53;;;23.11;43.91
69622;BME280;56841;55.964;37.674;2023-07-02T10:54:44;97977.78;;;23.14;41.80
69622;BME280;56841;55.964;37.674;2023-07-02T10:57:12;97974.63;;;23.50;42.71
69622;BME280;56841;55.964;37.674;2023-07-02T10:59:38;97990.91;;;23.58;41.91
69622;BME280;56841;55.964;37.674;2023-07-02T11:02:04;97985.84;;;23.57;41.31
69622;BME280;56841;55.964;37.674;2023-07-02T11:04:33;97980.56;;;23.65;40.98
69622;BME280;56841;55.964;37.674;2023-07-02T11:07:00;97984.97;;;23.42;41.15
69622;BME280;56841;55.964;37.674;2023-07-02T11:09:26;97997.13;;;23.40;41.65
69622;BME280;56841;55.964;37.674;2023-07-02T11:11:56;97991.59;;;23.50;41.68
69622;BME280;56841;55.964;37.674;2023-07-02T11:14:33;97995.38;;;23.49;41.57
69622;BME280;56841;55.964;37.674;2023-07-02T11:17:03;97985.19;;;23.84;40.92
69622;BME280;56841;55.964;37.674;2023-07-02T11:19:34;97978.09;;;23.88;41.11
69622;BME280;56841;55.964;37.674;2023-07-02T11:22:01;97970.69;;;24.45;40.23
69622;BME280;56841;55.964;37.674;2023-07-02T11:24:34;97976.69;;;24.83;40.02
69622;BME280;56841;55.964;37.674;2023-07-02T11:27:02;97997.56;;;25.05;38.39
69622;BME280;56841;55.964;37.674;2023-07-02T11:29:32;97983.34;;;25.64;37.32
69622;BME280;56841;55.964;37.674;2023-07-02T11:32:08;97993.66;;;26.20;36.04
69622;BME280;56841;55.964;37.674;2023-07-02T11:34:38;97981.63;;;26.58;34.90
69622;BME280;56841;55.964;37.674;2023-07-02T11:37:05;97994.22;;;26.62;35.23
69622;BME280;56841;55.964;37.674;2023-07-02T11:39:31;97988.50;;;26.64;34.84
69622;BME280;56841;55.964;37.674;2023-07-02T11:41:57;97993.31;;;27.41;34.16
69622;BME280;56841;55.964;37.674;2023-07-02T11:44:23;97990.66;;;27.85;33.12
69622;BME280;56841;55.964;37.674;2023-07-02T11:46:50;97984.81;;;28.47;32.57
69622;BME280;56841;55.964;37.674;2023-07-02T11:49:15;97985.38;;;28.06;33.34
69622;BME280;56841;55.964;37.674;2023-07-02T11:51:42;97984.41;;;28.02;33.37
69622;BME280;56841;55.964;37.674;2023-07-02T11:54:14;97987.78;;;27.99;33.81
69622;BME280;56841;55.964;37.674;2023-07-02T11:56:41;97986.66;;;26.82;35.87
69622;BME280;56841;55.964;37.674;2023-07-02T11:59:08;97990.00;;;26.48;37.21
69622;BME280;56841;55.964;37.674;2023-07-02T12:01:34;98007.41;;;25.65;37.75
69622;BME280;56841;55.964;37.674;2023-07-02T12:04:03;97996.94;;;26.09;37.43
69622;BME280;56841;55.964;37.674;2023-07-02T12:06:31;97990.66;;;27.94;34.59
69622;BME280;56841;55.964;37.674;2023-07-02T12:08:57;97986.50;;;28.69;33.05
69622;BME280;56841;55.964;37.674;2023-07-02T12:11:22;97988.66;;;29.86;31.74
69622;BME280;56841;55.964;37.674;2023-07-02T12:13:48;97985.97;;;30.19;30.52
69622;BME280;56841;55.964;37.674;2023-07-02T12:16:14;97988.38;;;30.12;28.85
69622;BME280;56841;55.964;37.674;2023-07-02T12:18:40;97988.66;;;29.44;30.24
69622;BME280;56841;55.964;37.674;2023-07-02T12:21:05;97978.59;;;29.15;30.32
69622;BME280;56841;55.964;37.674;2023-07-02T12:23:31;97975.34;;;29.72;30.53
69622;BME280;56841;55.964;37.674;2023-07-02T12:25:57;97976.81;;;28.51;31.17
69622;BME280;56841;55.964;37.674;2023-07-02T12:28:23;97992.53;;;27.41;32.49
69622;BME280;56841;55.964;37.674;2023-07-02T12:30:49;97981.78;;;27.10;33.20
69622;BME280;56841;55.964;37.674;2023-07-02T12:33:15;97986.50;;;27.96;32.48
69622;BME280;56841;55.964;37.674;2023-07-02T12:35:40;97990.00;;;28.14;32.10
69622;BME280;56841;55.964;37.674;2023-07-02T12:38:06;97985.38;;;27.88;33.26
69622;BME280;56841;55.964;37.674;2023-07-02T12:40:34;97990.53;;;28.93;32.19
69622;BME280;56841;55.964;37.674;2023-07-02T12:42:59;97989.16;;;29.16;32.17
69622;BME280;56841;55.964;37.674;2023-07-02T12:45:25;97979.06;;;28.49;33.13
69622;BME280;56841;55.964;37.674;2023-07-02T12:47:51;97993.03;;;27.43;35.26
69622;BME280;56841;55.964;37.674;2023-07-02T12:50:17;97993.03;;;28.04;34.60